Time;durP1;ratioP1;P1;durP2;ratioP2;P2;SDS_P1;SDS_P2;PMS_P1;PMS_P2;Temp;Humidity;BMP_temperature;BMP_pressure;BME280_temperature;BME280_humidity;BME280_pressure;Samples;Min_cycle;Max_cycle;Signal;HPM_P1;HPM_P2
2022/02/24 00:02:33;;;;;;;;;10.00;5.67;;;;;15.66;100.00;101551.91;5402913;22;46280;-93
2022/02/24 00:05:01;;;;;;;;;7.67;7.67;;;;;15.61;100.00;101551.72;5052245;28;45487;-92
2022/02/24 00:07:27;;;;;;;;;10.67;8.67;;;;;15.57;100.00;101536.56;5038307;28;44845;-92
2022/02/24 00:09:52;;;;;;;;;8.00;5.33;;;;;15.61;100.00;101549.09;5037290;28;45414;-94
2022/02/24 00:12:19;;;;;;;;;9.33;9.33;;;;;15.60;100.00;101541.97;5031428;28;47030;-93
2022/02/24 00:14:45;;;;;;;;;4.33;4.33;;;;;15.58;100.00;101530.44;4999419;28;45763;-93
2022/02/24 00:17:10;;;;;;;;;10.33;6.67;;;;;15.57;100.00;101523.34;5023305;28;45263;-93
2022/02/24 00:19:35;;;;;;;;;6.33;5.67;;;;;15.56;100.00;101535.69;4989074;28;45586;-93
2022/02/24 00:22:02;;;;;;;;;6.00;6.00;;;;;15.52;100.00;101516.13;5013462;28;46983;-94
2022/02/24 00:35:40;;;;;;;;;12.00;9.00;;;;;15.56;100.00;101529.50;6002805;22;46676;-89
2022/02/24 00:40:42;;;;;;;;;11.00;8.00;;;;;15.59;100.00;101521.66;5425601;22;46705;-90
2022/02/24 00:43:07;;;;;;;;;11.00;5.67;;;;;15.48;100.00;101510.69;5048287;28;46948;-91
2022/02/24 00:45:33;;;;;;;;;8.00;5.67;;;;;15.46;100.00;101502.66;5063218;28;45233;-90
2022/02/24 00:47:59;;;;;;;;;8.00;5.67;;;;;15.51;100.00;101503.72;5050649;28;44791;-92
2022/02/24 00:50:24;;;;;;;;;7.00;7.00;;;;;15.55;100.00;101512.69;5048205;28;45980;-92
2022/02/24 00:52:50;;;;;;;;;10.33;8.67;;;;;15.51;100.00;101501.09;5034663;28;48280;-92
2022/02/24 00:55:15;;;;;;;;;7.33;6.33;;;;;15.47;100.00;101490.34;5046343;28;45426;-93
2022/02/24 00:57:41;;;;;;;;;9.67;6.00;;;;;15.39;100.00;101485.69;5045344;28;45135;-92
2022/02/24 01:02:46;;;;;;;;;11.00;8.33;;;;;15.47;100.00;101485.06;5446359;22;46455;-92
2022/02/24 01:05:12;;;;;;;;;9.00;7.67;;;;;15.37;100.00;101468.84;5032845;28;45343;-94
2022/02/24 01:07:37;;;;;;;;;10.67;9.00;;;;;15.39;100.00;101472.44;5036037;28;45735;-93
2022/02/24 01:10:04;;;;;;;;;12.33;9.33;;;;;15.46;100.00;101470.03;5036280;28;45639;-93
2022/02/24 01:12:30;;;;;;;;;10.67;8.67;;;;;15.47;100.00;101474.47;5005339;28;48799;-93
2022/02/24 01:14:55;;;;;;;;;6.33;6.33;;;;;15.40;100.00;101452.19;5016899;28;45465;-94
2022/02/24 01:17:20;;;;;;;;;10.00;10.00;;;;;15.48;100.00;101468.34;5034994;28;45516;-93
2022/02/24 01:19:48;;;;;;;;;11.00;10.00;;;;;15.38;100.00;101452.16;5017816;28;45371;-93
2022/02/24 01:22:14;;;;;;;;;11.33;9.67;;;;;15.46;100.00;101470.91;5017404;28;48236;-93
2022/02/24 01:24:39;;;;;;;;;12.33;10.00;;;;;15.36;100.00;101472.31;5018156;28;45931;-93
2022/02/24 01:27:04;;;;;;;;;14.33;13.00;;;;;15.33;100.00;101466.03;5016986;28;45383;-93
2022/02/24 01:29:30;;;;;;;;;11.00;10.00;;;;;15.23;100.00;101452.44;5020453;28;45422;-93
2022/02/24 01:31:55;;;;;;;;;12.33;11.67;;;;;15.26;100.00;101463.16;5026959;28;47911;-93
2022/02/24 01:34:25;;;;;;;;;13.67;9.33;;;;;15.27;100.00;101458.78;5030799;28;46120;-93
2022/02/24 01:36:50;;;;;;;;;12.33;9.67;;;;;15.23;100.00;101457.75;5008493;28;45600;-93
2022/02/24 01:52:13;;;;;;;;;7.33;6.33;;;;;15.16;100.00;101422.25;5416911;22;46352;-94
2022/02/24 01:54:41;;;;;;;;;8.67;8.67;;;;;15.10;100.00;101410.56;5042823;28;45404;-93
2022/02/24 01:57:07;;;;;;;;;8.67;8.33;;;;;15.12;100.00;101422.06;5050902;28;45505;-93
2022/02/24 01:59:33;;;;;;;;;14.00;9.00;;;;;15.13;100.00;101421.22;5056133;28;45436;-93
2022/02/24 02:01:58;;;;;;;;;9.67;8.00;;;;;15.10;100.00;101413.19;5019354;28;47101;-94
2022/02/24 02:04:24;;;;;;;;;12.00;12.00;;;;;15.14;100.00;101421.28;5042732;28;45913;-93
2022/02/24 02:06:50;;;;;;;;;11.00;9.67;;;;;15.08;100.00;101410.47;5036180;28;45515;-94
2022/02/24 02:09:18;;;;;;;;;12.33;11.33;;;;;15.05;100.00;101391.88;5038900;28;45315;-93
2022/02/24 02:11:43;;;;;;;;;10.33;9.00;;;;;15.01;100.00;101379.38;5033547;28;48201;-93
2022/02/24 02:14:10;;;;;;;;;16.00;12.33;;;;;15.07;100.00;101387.53;5023252;28;45702;-93
2022/02/24 02:16:35;;;;;;;;;10.00;7.00;;;;;15.02;100.00;101379.44;5035462;28;45308;-93
2022/02/24 02:19:01;;;;;;;;;10.67;10.67;;;;;15.08;100.00;101376.09;5040993;28;45490;-93
2022/02/24 02:21:32;;;;;;;;;12.67;8.67;;;;;15.15;100.00;101374.59;5023537;28;46866;-93
2022/02/24 02:23:58;;;;;;;;;10.00;8.00;;;;;15.04;100.00;101367.19;5030363;28;45980;-92
2022/02/24 02:26:23;;;;;;;;;10.67;8.00;;;;;15.02;100.00;101362.69;5042339;28;45854;-93
2022/02/24 02:28:48;;;;;;;;;10.33;10.33;;;;;15.06;100.00;101368.13;5025492;28;45469;-93
2022/02/24 02:31:21;;;;;;;;;8.00;6.67;;;;;15.04;100.00;101372.47;5026568;28;48134;-93
2022/02/24 02:33:46;;;;;;;;;9.00;8.00;;;;;14.91;100.00;101352.59;5037041;28;46011;-92
2022/02/24 02:36:11;;;;;;;;;11.67;9.33;;;;;15.01;100.00;101366.16;5029137;28;45484;-93
2022/02/24 02:38:37;;;;;;;;;12.00;10.33;;;;;14.99;100.00;101359.91;5036015;28;45750;-92
2022/02/24 02:41:02;;;;;;;;;7.33;7.33;;;;;15.02;100.00;101354.75;5032393;28;47088;-93
2022/02/24 02:43:28;;;;;;;;;10.67;9.00;;;;;14.98;100.00;101353.72;5053943;28;45323;-93
2022/02/24 02:45:53;;;;;;;;;12.00;11.33;;;;;15.04;100.00;101363.63;5022501;28;45336;-93
2022/02/24 02:48:18;;;;;;;;;11.33;9.67;;;;;15.02;100.00;101350.38;5020845;28;45469;-91
2022/02/24 02:50:44;;;;;;;;;9.67;9.67;;;;;15.03;100.00;101359.16;5031611;28;47171;-91
2022/02/24 02:53:10;;;;;;;;;12.00;10.00;;;;;15.01;100.00;101355.56;5048518;28;45326;-91
2022/02/24 02:55:35;;;;;;;;;13.67;10.00;;;;;14.98;100.00;101343.16;5046713;28;45298;-90
2022/02/24 02:58:01;;;;;;;;;10.00;9.67;;;;;15.02;100.00;101350.38;5033979;28;45474;-91
2022/02/24 03:00:26;;;;;;;;;10.67;8.00;;;;;14.96;100.00;101339.56;5023926;28;46975;-93
2022/02/24 03:02:52;;;;;;;;;13.00;11.00;;;;;14.95;100.00;101335.09;5036642;28;45421;-93
2022/02/24 03:05:17;;;;;;;;;10.00;8.67;;;;;14.96;100.00;101321.03;5060967;28;44925;-91
2022/02/24 03:07:42;;;;;;;;;12.00;10.00;;;;;14.89;100.00;101308.47;5083106;27;45258;-92
2022/02/24 03:10:09;;;;;;;;;11.00;9.00;;;;;14.88;100.00;101325.16;5072749;28;48585;-93
2022/02/24 03:12:36;;;;;;;;;12.33;9.33;;;;;14.83;100.00;101314.38;5080953;28;45443;-93
2022/02/24 03:15:08;;;;;;;;;9.33;9.33;;;;;14.94;100.00;101318.38;5019021;28;45477;-93
2022/02/24 03:17:35;;;;;;;;;10.00;10.00;;;;;14.85;100.00;101320.63;5032412;28;45488;-93
2022/02/24 03:20:00;;;;;;;;;8.00;7.00;;;;;14.76;100.00;101307.97;5052627;28;47491;-93
2022/02/24 03:22:26;;;;;;;;;10.00;8.00;;;;;14.87;100.00;101323.38;5027726;28;45399;-93
2022/02/24 03:24:51;;;;;;;;;9.67;8.00;;;;;14.82;100.00;101313.47;5038474;28;45796;-92
2022/02/24 03:27:16;;;;;;;;;8.00;7.00;;;;;14.86;100.00;101311.88;5066328;28;45536;-93
2022/02/24 03:29:42;;;;;;;;;10.00;9.33;;;;;14.81;100.00;101295.84;5038253;28;47509;-94
2022/02/24 03:32:07;;;;;;;;;8.33;8.33;;;;;14.83;100.00;101299.44;5053202;28;45406;-93
2022/02/24 03:34:33;;;;;;;;;6.00;5.33;;;;;14.82;100.00;101288.78;5029777;28;45409;-93
2022/02/24 03:36:59;;;;;;;;;7.33;7.33;;;;;14.83;100.00;101298.53;5038379;28;45727;-93
2022/02/24 03:39:24;;;;;;;;;14.00;9.67;;;;;14.86;100.00;101298.66;5041853;28;48148;-94
2022/02/24 03:41:51;;;;;;;;;10.33;9.00;;;;;14.88;100.00;101301.34;5049635;28;45441;-93
2022/02/24 03:44:17;;;;;;;;;11.33;10.00;;;;;14.83;100.00;101287.94;5036184;28;45422;-92
2022/02/24 03:46:42;;;;;;;;;9.00;8.00;;;;;14.79;100.00;101275.47;5042023;28;45493;-93
2022/02/24 03:49:08;;;;;;;;;10.00;7.67;;;;;14.75;100.00;101282.38;5035099;28;47574;-93
2022/02/24 03:51:33;;;;;;;;;8.67;6.33;;;;;14.75;100.00;101272.72;5025118;28;45945;-93
2022/02/24 03:53:59;;;;;;;;;7.00;5.00;;;;;14.73;100.00;101261.19;5337283;22;45713;-92
2022/02/24 03:56:24;;;;;;;;;11.33;8.33;;;;;14.79;100.00;101257.84;5019551;28;45457;-92
2022/02/24 04:02:07;;;;;;;;;9.00;7.00;;;;;14.74;100.00;101251.53;5657603;22;46135;-92
2022/02/24 04:04:33;;;;;;;;;9.67;7.67;;;;;14.73;100.00;101244.44;4982636;28;45794;-93
2022/02/24 04:06:59;;;;;;;;;7.33;7.00;;;;;14.68;100.00;101238.09;4986354;28;45479;-93
2022/02/24 04:14:35;;;;;;;;;6.67;5.00;;;;;14.64;100.00;101243.25;5753785;22;45485;-93
2022/02/24 04:17:00;;;;;;;;;5.00;4.00;;;;;14.52;100.00;101233.16;5039087;28;45619;-94
2022/02/24 04:19:40;;;;;;;;;6.33;6.33;;;;;14.62;100.00;101247.59;5049543;28;48230;-93
2022/02/24 04:22:05;;;;;;;;;5.33;5.33;;;;;14.55;100.00;101253.50;5030200;28;45577;-93
2022/02/24 04:26:59;;;;;;;;;6.33;4.00;;;;;14.46;100.00;101247.84;5073943;28;46092;-92
2022/02/24 04:29:24;;;;;;;;;4.33;4.00;;;;;14.38;100.00;101240.53;5039214;28;47283;-93
2022/02/24 04:32:28;;;;;;;;;5.00;5.00;;;;;14.39;100.00;101246.72;5077137;28;45464;-93
2022/02/24 04:35:02;;;;;;;;;8.33;5.00;;;;;14.31;100.00;101246.44;5014588;28;45571;-93
2022/02/24 04:37:27;;;;;;;;;5.67;5.00;;;;;14.27;100.00;101245.44;4997108;28;45562;-93
2022/02/24 04:39:52;;;;;;;;;7.00;5.00;;;;;14.24;100.00;101247.97;4997106;28;48192;-93
2022/02/24 04:42:18;;;;;;;;;6.67;4.33;;;;;14.17;100.00;101238.88;4995575;28;48699;-93
2022/02/24 04:44:43;;;;;;;;;6.00;3.00;;;;;14.22;100.00;101248.72;4996899;28;45338;-93
2022/02/24 04:47:08;;;;;;;;;6.33;4.00;;;;;14.18;100.00;101252.97;5010437;28;45447;-93
2022/02/24 04:49:34;;;;;;;;;4.00;4.00;;;;;14.16;100.00;101245.03;4984237;28;47950;-93
2022/02/24 04:51:59;;;;;;;;;5.00;2.67;;;;;14.17;100.00;101238.88;4996700;28;45316;-91
2022/02/24 04:54:25;;;;;;;;;4.33;3.33;;;;;14.15;100.00;101244.94;4997686;28;45892;-92
2022/02/24 04:56:50;;;;;;;;;3.67;3.00;;;;;14.10;100.00;101243.84;4998280;28;45477;-91
2022/02/24 04:59:15;;;;;;;;;4.00;2.00;;;;;14.01;100.00;101232.13;4999636;28;48172;-92
2022/02/24 05:01:41;;;;;;;;;5.33;5.33;;;;;13.98;100.00;101231.09;4995481;28;46118;-93
2022/02/24 05:04:06;;;;;;;;;7.67;3.33;;;;;14.01;100.00;101233.88;5010230;28;45471;-91
2022/02/24 05:06:31;;;;;;;;;4.67;3.00;;;;;13.99;100.00;101232.91;5048382;27;45354;-92
2022/02/24 05:08:57;;;;;;;;;2.67;2.67;;;;;13.94;100.00;101233.59;5058509;28;47829;-92
2022/02/24 05:11:22;;;;;;;;;4.00;4.00;;;;;13.90;100.00;101228.16;5074858;28;45821;-93
2022/02/24 05:13:47;;;;;;;;;8.00;3.33;;;;;13.87;100.00;101231.56;5074915;28;45365;-93
2022/02/24 05:16:13;;;;;;;;;4.00;2.00;;;;;13.81;100.00;101231.34;5052764;28;45353;-92
2022/02/24 05:18:38;;;;;;;;;4.00;3.00;;;;;13.81;100.00;101223.44;5048583;28;48406;-92
2022/02/24 05:21:04;;;;;;;;;2.00;2.00;;;;;13.85;100.00;101226.25;5056710;27;45584;-93
2022/02/24 05:23:29;;;;;;;;;7.00;5.00;;;;;13.77;100.00;101211.84;5059089;28;45464;-92
2022/02/24 05:25:54;;;;;;;;;7.00;4.00;;;;;13.81;100.00;101224.31;5073240;28;45338;-92
2022/02/24 05:28:20;;;;;;;;;4.33;2.00;;;;;13.81;100.00;101218.16;5060063;28;47121;-92
2022/02/24 05:30:45;;;;;;;;;8.00;4.00;;;;;13.80;100.00;101216.34;5053310;28;45788;-92
2022/02/24 05:33:10;;;;;;;;;7.33;5.00;;;;;13.77;100.00;101219.75;5056666;27;45508;-93
2022/02/24 05:35:36;;;;;;;;;5.00;3.33;;;;;13.74;100.00;101219.63;5057354;28;45655;-92
2022/02/24 05:38:02;;;;;;;;;5.00;3.33;;;;;13.63;100.00;101204.25;5053585;28;47184;-92
2022/02/24 05:40:27;;;;;;;;;3.00;3.00;;;;;13.72;100.00;101222.22;5042308;28;45479;-93
2022/02/24 05:42:52;;;;;;;;;4.67;3.00;;;;;13.71;100.00;101214.25;5056831;28;45768;-93
2022/02/24 05:45:18;;;;;;;;;9.00;3.00;;;;;13.71;100.00;101219.53;5057600;28;45290;-93
2022/02/24 05:47:43;;;;;;;;;4.00;3.00;;;;;13.63;100.00;101206.91;5056820;28;47205;-93
2022/02/24 05:50:09;;;;;;;;;3.67;3.67;;;;;13.60;100.00;101196.25;5058210;28;45413;-94
2022/02/24 05:52:35;;;;;;;;;6.00;3.33;;;;;13.63;100.00;101206.91;5235594;22;45737;-91
2022/02/24 05:55:01;;;;;;;;;4.33;3.67;;;;;13.62;100.00;101212.13;5064233;28;45481;-92
2022/02/24 05:57:54;;;;;;;;;8.00;3.67;;;;;13.68;100.00;101216.75;5028890;28;47220;-93
2022/02/24 06:00:19;;;;;;;;;5.33;4.00;;;;;13.46;100.00;101190.38;5020751;28;45544;-93
2022/02/24 06:02:44;;;;;;;;;9.00;3.00;;;;;13.51;100.00;101209.00;5044028;28;45400;-92
2022/02/24 06:05:10;;;;;;;;;2.67;2.67;;;;;13.45;100.00;101206.16;5051681;28;45624;-93
2022/02/24 06:07:35;;;;;;;;;2.67;2.00;;;;;13.39;100.00;101198.88;5031233;28;46975;-93
2022/02/24 06:10:00;;;;;;;;;6.00;5.33;;;;;13.34;100.00;101188.16;5085218;22;46057;-91
2022/02/24 06:12:26;;;;;;;;;4.67;2.00;;;;;13.30;100.00;101189.75;5018544;28;45881;-94
2022/02/24 06:14:51;;;;;;;;;3.67;2.67;;;;;13.31;100.00;101193.28;5019910;28;45720;-94
2022/02/24 06:17:17;;;;;;;;;3.33;2.67;;;;;13.27;100.00;101194.00;5018035;28;48474;-94
2022/02/24 06:19:43;;;;;;;;;3.00;3.00;;;;;13.17;100.00;101188.34;5016346;28;45569;-95
2022/02/24 06:22:08;;;;;;;;;3.00;2.67;;;;;13.12;100.00;101173.16;5019130;28;45505;-94
2022/02/24 06:30:10;;;;;;;;;3.33;2.33;;;;;13.11;100.00;101182.81;5285993;22;45298;-93
2022/02/24 06:32:37;;;;;;;;;3.67;2.67;;;;;12.99;100.00;101159.47;5021964;28;45451;-94
2022/02/24 06:35:03;;;;;;;;;3.00;1.67;;;;;13.05;100.00;101174.66;5020840;28;45371;-94
2022/02/24 06:37:30;;;;;;;;;2.33;2.33;;;;;13.01;100.00;101173.63;5030150;28;48149;-94
2022/02/24 06:39:55;;;;;;;;;3.00;3.00;;;;;13.04;100.00;101180.78;5039168;28;45445;-94
2022/02/24 06:42:20;;;;;;;;;5.67;1.33;;;;;12.93;100.00;101172.41;5063827;28;45463;-94
2022/02/24 06:44:46;;;;;;;;;7.50;3.00;;;;;13.04;100.00;101189.56;5065626;28;45634;-94
2022/02/24 06:47:11;;;;;;;;;1.33;1.33;;;;;13.01;100.00;101196.44;5062794;28;47050;-94
2022/02/24 06:49:37;;;;;;;;;2.00;2.00;;;;;12.94;100.00;101183.00;5062202;28;45539;-92
2022/02/24 06:52:02;;;;;;;;;5.33;2.33;;;;;12.93;100.00;101173.31;5057823;27;45493;-94
2022/02/24 06:54:28;;;;;;;;;3.00;2.67;;;;;12.91;100.00;101163.53;5034085;28;45605;-93
2022/02/24 06:56:53;;;;;;;;;10.33;2.33;;;;;12.90;100.00;101170.53;5017333;28;47543;-93
2022/02/24 06:59:19;;;;;;;;;7.00;4.00;;;;;13.01;100.00;101192.09;5034626;28;45530;-93
2022/02/24 07:01:44;;;;;;;;;3.33;2.00;;;;;12.95;100.00;101179.53;5045843;28;45750;-93
2022/02/24 07:04:10;;;;;;;;;3.67;2.00;;;;;12.94;100.00;101180.34;5040780;28;45481;-93
2022/02/24 07:06:35;;;;;;;;;4.67;3.67;;;;;12.90;100.00;101173.16;5033077;28;48191;-93
2022/02/24 07:09:01;;;;;;;;;7.33;2.67;;;;;12.95;100.00;101187.44;5030464;28;45764;-93
2022/02/24 07:11:26;;;;;;;;;3.67;2.00;;;;;12.96;100.00;101183.09;5030143;28;45582;-94
2022/02/24 07:13:52;;;;;;;;;7.00;4.67;;;;;12.96;100.00;101180.44;5033253;28;45708;-94
2022/02/24 07:16:19;;;;;;;;;3.00;2.00;;;;;13.01;100.00;101197.34;5032750;28;48135;-94
2022/02/24 07:18:45;;;;;;;;;4.33;2.00;;;;;13.04;100.00;101192.19;5033160;28;45753;-94
2022/02/24 07:21:11;;;;;;;;;7.00;3.00;;;;;13.10;100.00;101204.72;5033145;28;45401;-93
2022/02/24 07:23:36;;;;;;;;;4.00;2.33;;;;;13.12;100.00;101203.06;5050428;28;45432;-93
2022/02/24 07:26:02;;;;;;;;;5.00;2.00;;;;;13.24;100.00;101210.59;5016575;28;47483;-87
2022/02/24 07:28:28;;;;;;;;;0.00;0.00;;;;;13.26;100.00;101195.75;5028123;28;45516;-92
2022/02/24 07:30:53;;;;;;;;;4.00;4.00;;;;;13.37;100.00;101198.81;5034226;28;45599;-90
2022/02/24 07:33:18;;;;;;;;;6.67;3.33;;;;;13.46;100.00;101193.00;5034203;28;45712;-89
2022/02/24 07:35:44;;;;;;;;;2.33;2.00;;;;;13.48;100.00;101193.97;5035037;28;45537;-89
2022/02/24 07:38:09;;;;;;;;;2.67;2.00;;;;;13.56;100.00;101190.75;5034543;28;45657;-89
2022/02/24 07:40:35;;;;;;;;;3.00;2.33;;;;;13.60;100.00;101184.81;5033503;28;45693;-91
2022/02/24 07:43:00;;;;;;;;;7.00;2.67;;;;;13.61;100.00;101186.59;5033587;28;45633;-87
2022/02/24 07:45:26;;;;;;;;;3.33;2.33;;;;;13.69;100.00;101182.50;5033214;28;46281;-88
2022/02/24 07:47:51;;;;;;;;;4.00;3.00;;;;;13.71;100.00;101180.84;5033310;28;45295;-88
2022/02/24 07:50:17;;;;;;;;;3.00;3.00;;;;;13.76;100.00;101173.09;5033749;28;45315;-88
2022/02/24 07:52:46;;;;;;;;;9.00;3.33;;;;;13.85;100.00;101178.75;5031461;28;45377;-89
2022/02/24 07:55:13;;;;;;;;;3.00;3.00;;;;;13.90;100.00;101178.91;5023516;28;45425;-88
2022/02/24 07:57:40;;;;;;;;;6.00;3.33;;;;;13.95;100.00;101172.09;5023187;28;45767;-89
2022/02/24 08:00:08;;;;;;;;;6.00;2.67;;;;;14.06;100.00;101177.78;5031903;28;46790;-88
2022/02/24 08:02:34;;;;;;;;;3.67;2.33;;;;;14.08;100.00;101156.72;5033826;28;45545;-88
2022/02/24 08:05:00;;;;;;;;;4.00;3.00;;;;;14.14;100.00;101161.31;5020348;28;46569;-88
2022/02/24 08:07:26;;;;;;;;;1.67;1.33;;;;;14.15;100.00;101165.75;5018150;28;45672;-88
2022/02/24 08:09:51;;;;;;;;;4.67;2.00;;;;;14.18;100.00;101166.78;5028978;28;46599;-88
2022/02/24 08:15:00;;;;;;;;;4.00;2.33;;;;;14.24;100.00;101160.81;5025950;28;45512;-88
2022/02/24 08:17:26;;;;;;;;;2.00;2.00;;;;;14.27;100.00;101165.31;5015101;28;47517;-89
2022/02/24 08:19:51;;;;;;;;;1.67;1.67;;;;;14.27;100.00;101174.16;5026363;28;45583;-88
2022/02/24 08:22:17;;;;;;;;;2.00;2.00;;;;;14.32;100.00;101160.19;5025389;28;48571;-87
2022/02/24 08:24:42;;;;;;;;;2.00;2.00;;;;;14.35;100.00;101163.88;5019931;28;46213;-88
2022/02/24 08:27:07;;;;;;;;;4.00;2.00;;;;;14.51;100.00;101162.66;5029635;28;45678;-88
2022/02/24 08:29:33;;;;;;;;;3.00;2.33;;;;;14.60;100.00;101151.53;5028749;28;45424;-88
2022/02/24 08:31:58;;;;;;;;;2.00;2.00;;;;;14.77;100.00;101158.22;5016342;28;45390;-89
2022/02/24 08:34:24;;;;;;;;;7.00;2.00;;;;;14.92;100.00;101152.63;4992837;28;47093;-89
2022/02/24 08:36:51;;;;;;;;;2.00;2.00;;;;;15.02;100.00;101149.44;5020358;28;45969;-89
2022/02/24 08:39:19;;;;;;;;;4.00;2.33;;;;;15.11;100.00;101156.78;5031137;28;45384;-89
2022/02/24 08:41:45;;;;;;;;;3.67;2.00;;;;;15.21;100.00;101163.25;5029049;28;45438;-88
2022/02/24 08:44:12;;;;;;;;;2.00;2.00;;;;;15.23;100.00;101158.03;5027218;28;45558;-89
2022/02/24 08:46:37;;;;;;;;;4.00;4.00;;;;;15.22;100.00;101151.84;5025036;28;45519;-89
2022/02/24 08:49:03;;;;;;;;;2.00;2.00;;;;;15.28;100.00;101159.09;5030492;28;45627;-90
2022/02/24 08:51:28;;;;;;;;;3.00;3.00;;;;;15.27;100.00;101152.91;5036936;28;46083;-89
2022/02/24 08:53:54;;;;;;;;;3.00;2.67;;;;;15.24;100.00;101155.44;5040087;28;45523;-90
2022/02/24 08:56:19;;;;;;;;;2.33;2.00;;;;;15.18;100.00;101160.50;5016638;28;45862;-89
2022/02/24 08:58:44;;;;;;;;;3.67;1.33;;;;;15.04;100.00;101153.03;5018611;28;45771;-89
2022/02/24 09:01:10;;;;;;;;;2.00;2.00;;;;;15.03;100.00;101163.53;5050197;28;45629;-89
2022/02/24 09:03:35;;;;;;;;;2.00;1.67;;;;;14.97;100.00;101153.69;5034087;28;47450;-88
2022/02/24 09:06:00;;;;;;;;;2.00;1.00;;;;;14.94;100.00;101154.47;5031510;28;45724;-87
2022/02/24 09:08:26;;;;;;;;;2.33;2.00;;;;;14.90;100.00;101160.50;5025276;28;45335;-88
2022/02/24 09:10:51;;;;;;;;;3.00;3.00;;;;;14.80;100.00;101156.59;5049730;28;50721;-89
2022/02/24 09:13:16;;;;;;;;;2.00;0.00;;;;;14.80;100.00;101161.88;5049967;28;45329;-89
2022/02/24 09:15:42;;;;;;;;;2.00;2.00;;;;;14.76;100.00;101160.00;5033672;28;45726;-88
2022/02/24 09:18:11;;;;;;;;;1.00;1.00;;;;;14.76;100.00;101149.44;5034693;28;45705;-88
2022/02/24 09:20:38;;;;;;;;;6.00;2.00;;;;;14.84;100.00;101152.34;5049765;28;45416;-88
2022/02/24 09:23:04;;;;;;;;;2.67;0.67;;;;;14.83;100.00;101159.34;5046427;28;47479;-88
2022/02/24 09:25:29;;;;;;;;;5.00;2.00;;;;;14.91;100.00;101153.47;5031296;28;45387;-88
2022/02/24 09:27:54;;;;;;;;;3.00;2.00;;;;;15.02;100.00;101161.75;5032551;28;45772;-88
2022/02/24 09:30:20;;;;;;;;;1.00;1.00;;;;;15.10;100.00;101169.97;5023430;28;45371;-89
2022/02/24 09:32:45;;;;;;;;;1.00;1.00;;;;;15.13;100.00;101151.53;5042053;28;45743;-89
2022/02/24 09:35:13;;;;;;;;;3.00;1.67;;;;;15.22;100.00;101143.00;5051277;28;46036;-89
2022/02/24 09:37:39;;;;;;;;;1.00;1.00;;;;;15.36;100.00;101151.41;5029696;28;45385;-89
2022/02/24 09:40:06;;;;;;;;;1.33;1.33;;;;;15.54;100.00;101137.84;5041927;28;45637;-90
2022/02/24 09:42:31;;;;;;;;;1.00;1.00;;;;;15.65;100.00;101135.53;5023794;28;48762;-89
2022/02/24 09:44:57;;;;;;;;;2.67;2.67;;;;;15.83;100.00;101123.69;5045085;28;45582;-89
2022/02/24 09:47:24;;;;;;;;;0.33;0.33;;;;;16.04;100.00;101123.44;5034104;28;45504;-90
2022/02/24 09:49:50;;;;;;;;;1.00;1.00;;;;;16.05;100.00;101124.38;5049834;28;45501;-90
2022/02/24 09:52:15;;;;;;;;;3.00;1.00;;;;;16.12;100.00;101112.19;5045812;28;45653;-89
2022/02/24 09:54:40;;;;;;;;;1.00;1.00;;;;;16.29;100.00;101117.97;5026376;28;45549;-88
2022/02/24 09:57:06;;;;;;;;;3.33;1.00;;;;;16.36;100.00;101119.94;5048510;28;45582;-89
2022/02/24 09:59:31;;;;;;;;;1.00;1.00;;;;;16.50;100.00;101111.44;5035242;28;45436;-88
2022/02/24 10:02:00;;;;;;;;;2.67;0.00;;;;;16.62;100.00;101116.19;5026645;28;48280;-88
2022/02/24 10:04:25;;;;;;;;;1.00;1.00;;;;;16.68;100.00;101110.13;5023267;28;45787;-90
2022/02/24 10:06:51;;;;;;;;;2.00;1.00;;;;;16.75;100.00;101114.75;5046259;28;45343;-88
2022/02/24 10:09:33;;;;;;;;;3.33;1.67;;;;;16.77;100.00;101102.44;5020822;28;45574;-88
2022/02/24 10:12:07;;;;;;;;;2.00;1.67;;;;;16.66;100.00;101109.22;5050841;28;45453;-89
2022/02/24 10:14:34;;;;;;;;;4.00;4.00;;;;;16.44;100.00;101098.06;5041816;28;45644;-89
2022/02/24 10:17:09;;;;;;;;;1.00;1.00;;;;;16.39;100.00;101098.81;5033478;28;45525;-88
2022/02/24 10:19:40;;;;;;;;;3.00;2.00;;;;;16.32;100.00;101088.91;5051784;28;45412;-89
2022/02/24 10:22:10;;;;;;;;;2.00;2.00;;;;;16.20;100.00;101092.13;5060699;28;45603;-88
2022/02/24 10:24:36;;;;;;;;;0.67;0.67;;;;;15.98;100.00;101086.19;5062273;28;44964;-89
2022/02/24 10:27:25;;;;;;;;;3.33;1.00;;;;;15.97;100.00;101092.34;5043337;28;45399;-87
2022/02/24 10:30:09;;;;;;;;;4.00;1.00;;;;;16.11;100.00;101105.09;5041074;28;45485;-87
2022/02/24 10:32:47;;;;;;;;;0.67;0.67;;;;;16.11;100.00;101100.69;5047941;28;45597;-88
2022/02/24 10:35:39;;;;;;;;;1.33;1.00;;;;;16.03;100.00;101086.34;5029847;28;45475;-87
2022/02/24 10:38:10;;;;;;;;;3.00;2.00;;;;;15.92;100.00;101094.88;5046341;28;45551;-86
2022/02/24 10:40:38;;;;;;;;;2.00;2.00;;;;;15.93;100.00;101079.84;5029311;28;45430;-87
2022/02/24 10:43:21;;;;;;;;;2.00;2.00;;;;;16.04;100.00;101096.06;5028705;28;47458;-87
2022/02/24 10:46:08;;;;;;;;;3.00;1.00;;;;;16.11;100.00;101084.81;5048184;28;45481;-87
2022/02/24 10:48:53;;;;;;;;;1.00;1.00;;;;;16.14;100.00;101076.06;5037034;28;45760;-88
2022/02/24 10:51:31;;;;;;;;;5.00;1.00;;;;;16.15;100.00;101080.50;5041824;28;45533;-88
2022/02/24 10:54:00;;;;;;;;;1.67;1.00;;;;;16.19;100.00;101061.19;5031189;28;47101;-88
2022/02/24 10:56:26;;;;;;;;;2.00;2.00;;;;;16.10;100.00;101058.31;5050945;28;45793;-87
2022/02/24 10:58:52;;;;;;;;;2.00;2.00;;;;;16.11;100.00;101065.38;5025366;28;45529;-87
2022/02/24 11:01:26;;;;;;;;;1.00;0.00;;;;;16.23;100.00;101063.09;5043753;28;46094;-88
2022/02/24 11:03:56;;;;;;;;;1.33;1.00;;;;;16.24;100.00;101063.97;5048512;28;45711;-88
2022/02/24 11:06:24;;;;;;;;;2.00;2.00;;;;;16.31;100.00;101064.16;5029272;28;46147;-87
2022/02/24 11:08:53;;;;;;;;;3.00;3.00;;;;;16.36;100.00;101061.66;5049930;28;45580;-88
2022/02/24 11:11:22;;;;;;;;;1.67;1.67;;;;;16.36;100.00;101051.06;5038489;28;45398;-89
2022/02/24 11:13:49;;;;;;;;;0.00;0.00;;;;;16.42;100.00;101037.06;5025240;28;48186;-89
2022/02/24 11:16:16;;;;;;;;;1.67;1.67;;;;;16.45;100.00;101028.31;5044978;28;45409;-89
2022/02/24 11:18:42;;;;;;;;;2.33;2.33;;;;;16.48;100.00;101015.13;5044857;28;45669;-89
2022/02/24 11:21:12;;;;;;;;;2.00;1.00;;;;;16.52;100.00;101017.91;5019166;28;45445;-89
2022/02/24 11:23:39;;;;;;;;;2.00;2.00;;;;;16.61;100.00;101019.91;5038441;28;45521;-89
2022/02/24 11:26:04;;;;;;;;;1.33;1.00;;;;;16.65;100.00;101012.91;5048991;28;45314;-88
2022/02/24 11:28:43;;;;;;;;;1.00;1.00;;;;;17.03;100.00;101021.75;5049778;28;45371;-88
2022/02/24 11:31:20;;;;;;;;;3.67;0.33;;;;;17.64;100.00;101036.34;5047226;28;45845;-89
2022/02/24 11:33:49;;;;;;;;;2.00;1.67;;;;;18.12;100.00;101033.72;5023507;28;49048;-90
2022/02/24 11:36:16;;;;;;;;;1.00;1.00;;;;;18.51;100.00;101033.53;5017397;28;46576;-90
2022/02/24 11:39:02;;;;;;;;;2.00;2.00;;;;;18.62;100.00;101029.31;5033737;28;45345;-90
2022/02/24 11:41:27;;;;;;;;;2.00;1.00;;;;;18.83;100.00;101043.81;5052665;28;45345;-91
2022/02/24 11:43:54;;;;;;;;;2.00;1.00;;;;;18.76;100.00;101040.13;5032425;28;47335;-93
2022/02/24 11:46:20;;;;;;;;;1.00;1.00;;;;;18.59;100.00;101042.53;5047410;28;45384;-91
2022/02/24 11:48:45;;;;;;;;;3.33;2.00;;;;;18.49;100.00;101049.47;5037437;28;45433;-90
2022/02/24 11:51:18;;;;;;;;;1.00;0.00;;;;;18.38;100.00;101045.72;5048300;28;45682;-88
2022/02/24 11:53:45;;;;;;;;;1.33;1.33;;;;;18.33;100.00;101032.34;5029323;28;48364;-88
2022/02/24 11:56:13;;;;;;;;;3.00;1.00;;;;;18.40;100.00;101042.22;5046614;28;45334;-89
2022/02/24 11:58:45;;;;;;;;;4.00;1.67;;;;;18.75;100.00;101029.50;5023779;28;45527;-90
2022/02/24 12:01:24;;;;;;;;;2.00;1.00;;;;;19.17;100.00;101048.72;5024535;28;45674;-89
2022/02/24 12:03:51;;;;;;;;;2.67;2.00;;;;;19.25;100.00;101032.03;5022689;28;47641;-89